createdAt,value
2017-05-30T00:01:12.394Z,48.3
2017-05-30T00:02:12.655Z,48.21
2017-05-30T00:03:12.595Z,48.39
2017-05-30T00:04:12.532Z,48.21
2017-05-30T00:05:12.470Z,48.39
2017-05-30T00:06:12.411Z,48.59
2017-05-30T00:07:12.346Z,48.21
2017-05-30T00:08:12.283Z,48.21
2017-05-30T00:09:12.222Z,48.3
2017-05-30T00:10:12.163Z,48.69
2017-05-30T00:11:12.096Z,48.39
2017-05-30T00:12:12.037Z,48.3
2017-05-30T00:13:11.975Z,49.07
2017-05-30T00:14:11.911Z,48.39
2017-05-30T00:15:11.850Z,48.21
2017-05-30T00:16:11.789Z,48.21
2017-05-30T00:17:11.398Z,48.21
2017-05-30T00:18:11.664Z,48.79
2017-05-30T00:19:11.599Z,49.07
2017-05-30T00:20:11.539Z,48.39
2017-05-30T00:21:11.477Z,48.39
2017-05-30T00:22:11.086Z,48.3
2017-05-30T00:23:11.352Z,48.3
2017-05-30T00:24:11.292Z,48.39
2017-05-30T00:25:11.227Z,48.39
2017-05-30T00:26:11.168Z,48.3
2017-05-30T00:27:11.104Z,48.39
2017-05-30T00:28:11.042Z,48.3
2017-05-30T00:29:10.653Z,48.49
2017-05-30T00:30:10.589Z,48.59
2017-05-30T00:31:10.854Z,48.21
2017-05-30T00:32:10.797Z,48.69
2017-05-30T00:33:10.733Z,48.21
2017-05-30T00:34:10.668Z,48.39
2017-05-30T00:35:10.278Z,48.21
2017-05-30T00:36:10.545Z,48.21
2017-05-30T00:37:10.159Z,48.3
2017-05-30T00:38:10.092Z,48.39
2017-05-30T00:39:10.030Z,48.21
2017-05-30T00:40:10.297Z,48.69
2017-05-30T00:41:10.233Z,48.3
2017-05-30T00:42:10.172Z,48.3
2017-05-30T00:43:10.113Z,48.49
2017-05-30T00:44:09.721Z,48.3
2017-05-30T00:45:09.986Z,48.49
2017-05-30T00:46:09.594Z,48.49
2017-05-30T00:47:09.860Z,48.49
2017-05-30T00:48:09.803Z,48.49
2017-05-30T00:49:09.736Z,48.49
2017-05-30T00:50:09.674Z,48.49
2017-05-30T00:51:09.614Z,48.01
2017-05-30T00:52:09.550Z,48.3
2017-05-30T00:53:09.493Z,48.49
2017-05-30T00:54:09.100Z,48.21
2017-05-30T00:55:09.363Z,48.21
2017-05-30T00:56:09.300Z,48.39
2017-05-30T00:57:09.239Z,48.3
2017-05-30T00:58:09.176Z,48.59
2017-05-30T00:59:09.114Z,48.59
2017-05-30T01:00:08.725Z,48.39
2017-05-30T01:01:08.991Z,48.49
2017-05-30T01:02:08.927Z,48.3
2017-05-30T01:03:08.865Z,48.49
2017-05-30T01:04:08.803Z,48.59
2017-05-30T01:05:08.744Z,48.39
2017-05-30T01:06:08.353Z,48.21
2017-05-30T01:07:08.616Z,48.3
2017-05-30T01:08:08.556Z,48.49
2017-05-30T01:09:08.498Z,48.3
2017-05-30T01:10:08.199Z,48.49
2017-05-30T01:11:08.366Z,48.39
2017-05-30T01:12:08.306Z,48.21
2017-05-30T01:13:08.246Z,48.39
2017-05-30T01:14:08.180Z,48.39
2017-05-30T01:15:08.121Z,48.49
2017-05-30T01:16:08.057Z,48.39
2017-05-30T01:17:07.993Z,48.69
2017-05-30T01:18:07.933Z,48.49
2017-05-30T01:19:07.871Z,48.39
2017-05-30T01:20:07.809Z,48.49
2017-05-30T01:21:07.747Z,48.69
2017-05-30T01:22:07.687Z,48.39
2017-05-30T01:23:07.626Z,48.21
2017-05-30T01:24:07.561Z,48.39
2017-05-30T01:25:07.499Z,48.69
2017-05-30T01:26:07.436Z,48.39
2017-05-30T01:27:07.373Z,48.59
2017-05-30T01:28:07.313Z,48.21
2017-05-30T01:29:07.249Z,48.49
2017-05-30T01:30:07.186Z,48.49
2017-05-30T01:31:07.127Z,48.3
2017-05-30T01:32:07.065Z,48.39
2017-05-30T01:33:07.300Z,48.11
2017-05-30T01:34:06.942Z,48.39
2017-05-30T01:35:06.877Z,48.49
2017-05-30T01:36:06.816Z,48.59
2017-05-30T01:37:06.754Z,48.39
2017-05-30T01:38:06.696Z,48.59
2017-05-30T01:39:06.628Z,48.69
2017-05-30T01:40:06.568Z,48.59
2017-05-30T01:41:06.507Z,48.88
2017-05-30T01:42:06.442Z,48.39
2017-05-30T01:43:06.383Z,48.21
2017-05-30T01:44:06.318Z,48.3
2017-05-30T01:45:06.256Z,48.39
2017-05-30T01:46:06.194Z,48.59
2017-05-30T01:47:05.804Z,48.69
2017-05-30T01:48:06.070Z,48.59
2017-05-30T01:49:06.020Z,48.49
2017-05-30T01:50:05.948Z,48.21
2017-05-30T01:51:05.886Z,48.39
2017-05-30T01:52:05.871Z,48.88
2017-05-30T01:53:05.760Z,48.88
2017-05-30T01:54:05.697Z,48.69
2017-05-30T01:55:05.308Z,48.79
2017-05-30T01:56:05.574Z,48.79
2017-05-30T01:57:05.511Z,48.3
2017-05-30T01:58:05.447Z,48.88
2017-05-30T01:59:05.386Z,48.69
2017-05-30T02:00:04.999Z,47.81
2017-05-30T02:01:05.262Z,48.39
2017-05-30T02:02:05.199Z,48.39
2017-05-30T02:03:06.337Z,48.3
2017-05-30T02:04:05.076Z,48.88
2017-05-30T02:05:05.015Z,48.21
2017-05-30T02:06:04.950Z,48.61
2017-05-30T02:07:04.889Z,48.11
2017-05-30T02:08:04.827Z,48.49
2017-05-30T02:09:04.763Z,48.69
2017-05-30T02:10:04.706Z,48.59
2017-05-30T02:11:04.849Z,48.3
2017-05-30T02:12:04.579Z,48.21
2017-05-30T02:13:04.515Z,48.59
2017-05-30T02:14:04.457Z,48.21
2017-05-30T02:15:04.393Z,48.21
2017-05-30T02:16:04.332Z,48.59
2017-05-30T02:17:04.270Z,48.21
2017-05-30T02:18:04.207Z,48.11
2017-05-30T02:19:04.157Z,48.49
2017-05-30T02:20:04.183Z,48.3
2017-05-30T02:21:04.022Z,48.01
2017-05-30T02:22:03.960Z,48.01
2017-05-30T02:23:03.901Z,48.21
2017-05-30T02:24:03.837Z,48.81
2017-05-30T02:25:03.779Z,48.69
2017-05-30T02:26:03.713Z,48.21
2017-05-30T02:27:03.649Z,48.21
2017-05-30T02:28:03.584Z,48.11
2017-05-30T02:29:03.524Z,48.49
2017-05-30T02:30:03.463Z,48.49
2017-05-30T02:31:03.402Z,48.42
2017-05-30T02:32:03.337Z,48.3
2017-05-30T02:33:03.275Z,48.49
2017-05-30T02:34:03.213Z,48.42
2017-05-30T02:35:03.151Z,48.39
2017-05-30T02:36:03.088Z,47.91
2017-05-30T02:37:03.029Z,48.59
2017-05-30T02:38:02.638Z,48.42
2017-05-30T02:39:02.577Z,48.59
2017-05-30T02:40:02.841Z,48.49
2017-05-30T02:41:02.450Z,48.32
2017-05-30T02:42:02.716Z,48.59
2017-05-30T02:43:02.654Z,48.21
2017-05-30T02:44:02.591Z,48.3
2017-05-30T02:45:02.529Z,48.39
2017-05-30T02:46:02.467Z,48.49
2017-05-30T02:47:02.404Z,48.39
2017-05-30T02:48:02.342Z,48.23
2017-05-30T02:49:02.282Z,48.39
2017-05-30T02:50:02.219Z,48.79
2017-05-30T02:51:02.158Z,48.39
2017-05-30T02:52:02.099Z,48.21
2017-05-30T02:53:01.705Z,48.39
2017-05-30T02:54:01.644Z,48.32
2017-05-30T02:55:01.910Z,48.21
2017-05-30T02:56:01.845Z,48.79
2017-05-30T02:57:01.792Z,48.71
2017-05-30T02:58:01.724Z,48.3
2017-05-30T02:59:01.660Z,48.49
2017-05-30T03:00:01.600Z,48.81
2017-05-30T03:01:01.549Z,48.03
2017-05-30T03:02:01.475Z,48.49
2017-05-30T03:03:01.410Z,48.21
2017-05-30T03:04:01.350Z,48.3
2017-05-30T03:05:01.287Z,48.32
2017-05-30T03:06:00.900Z,48.11
2017-05-30T03:07:01.169Z,48.61
2017-05-30T03:08:01.108Z,48.69
2017-05-30T03:09:01.040Z,48.69
2017-05-30T03:10:00.977Z,48.11
2017-05-30T03:11:00.918Z,48.42
2017-05-30T03:12:00.857Z,48.49
2017-05-30T03:13:00.795Z,48.39
2017-05-30T03:14:00.732Z,48.3
2017-05-30T03:15:00.671Z,48.59
2017-05-30T03:16:00.613Z,48.52
2017-05-30T03:17:00.593Z,48.59
2017-05-30T03:18:00.481Z,48.49
2017-05-30T03:19:00.419Z,48.59
2017-05-30T03:20:00.360Z,48.49
2017-05-30T03:21:00.299Z,48.39
2017-05-30T03:21:59.906Z,48.49
2017-05-30T03:23:00.172Z,48.21
2017-05-30T03:24:00.529Z,48.3
2017-05-30T03:25:00.048Z,48.21
2017-05-30T03:25:59.984Z,48.39
2017-05-30T03:26:59.923Z,48.39
2017-05-30T03:27:59.863Z,48.39
2017-05-30T03:28:59.803Z,48.49
2017-05-30T03:29:59.738Z,48.3
2017-05-30T03:30:59.678Z,48.39
2017-05-30T03:31:59.619Z,48.39
2017-05-30T03:32:59.550Z,48.3
2017-05-30T03:33:59.491Z,48.39
2017-05-30T03:34:59.429Z,48.49
2017-05-30T03:35:59.363Z,48.3
2017-05-30T03:36:59.300Z,48.49
2017-05-30T03:37:59.245Z,48.49
2017-05-30T03:38:59.181Z,48.49
2017-05-30T03:39:59.115Z,48.49
2017-05-30T03:40:59.052Z,48.49
2017-05-30T03:41:58.996Z,48.3
2017-05-30T03:42:58.932Z,48.69
2017-05-30T03:43:58.867Z,48.39
2017-05-30T03:44:58.806Z,48.49
2017-05-30T03:45:58.743Z,48.21
2017-05-30T03:46:58.681Z,48.3
2017-05-30T03:47:58.620Z,48.49
2017-05-30T03:48:58.568Z,48.3
2017-05-30T03:49:58.249Z,48.88
2017-05-30T03:50:58.434Z,48.79
2017-05-30T03:51:58.371Z,48.3
2017-05-30T03:52:58.309Z,49.46
2017-05-30T03:53:58.247Z,48.69
2017-05-30T03:54:58.186Z,48.49
2017-05-30T03:55:58.121Z,48.01
2017-05-30T03:56:57.734Z,48.39
2017-05-30T03:57:57.997Z,48.01
2017-05-30T03:58:57.937Z,48.49
2017-05-30T03:59:57.873Z,48.01
2017-05-30T04:00:57.810Z,48.21
2017-05-30T04:01:57.748Z,48.21
2017-05-30T04:02:57.688Z,48.3
2017-05-30T04:03:57.310Z,48.11
2017-05-30T04:04:57.572Z,48.3
2017-05-30T04:05:57.502Z,48.49
2017-05-30T04:06:57.479Z,48.49
2017-05-30T04:07:57.378Z,48.3
2017-05-30T04:08:57.317Z,48.11
2017-05-30T04:09:57.255Z,48.21
2017-05-30T04:10:57.190Z,48.49
2017-05-30T04:11:57.132Z,48.39
2017-05-30T04:12:56.738Z,48.49
2017-05-30T04:13:57.005Z,48.52
2017-05-30T04:14:56.950Z,48.3
2017-05-30T04:15:56.880Z,48.3
2017-05-30T04:16:56.820Z,48.49
2017-05-30T04:17:56.757Z,48.3
2017-05-30T04:18:56.700Z,48.39
2017-05-30T04:19:56.303Z,48.59
2017-05-30T04:20:56.571Z,48.69
2017-05-30T04:21:56.557Z,48.21
2017-05-30T04:22:56.446Z,48.3
2017-05-30T04:23:56.383Z,48.21
2017-05-30T04:24:56.322Z,48.3
2017-05-30T04:25:56.259Z,48.69
2017-05-30T04:26:55.869Z,48.3
2017-05-30T04:27:56.133Z,48.59
2017-05-30T04:28:56.072Z,48.69
2017-05-30T04:29:56.011Z,48.21
2017-05-30T04:30:55.946Z,48.69
2017-05-30T04:31:55.886Z,48.39
2017-05-30T04:32:55.840Z,48.49
2017-05-30T04:33:55.765Z,48.69
2017-05-30T04:34:55.701Z,48.39
2017-05-30T04:35:55.638Z,48.49
2017-05-30T04:36:55.574Z,48.69
2017-05-30T04:37:55.517Z,48.79
2017-05-30T04:38:55.449Z,49.37
2017-05-30T04:39:55.389Z,48.97
2017-05-30T04:40:55.325Z,48.88
2017-05-30T04:41:55.263Z,49.65
2017-05-30T04:42:55.201Z,49.55
2017-05-30T04:43:55.141Z,49.75
2017-05-30T04:44:55.089Z,49.55
2017-05-30T04:45:55.016Z,49.75
2017-05-30T04:46:54.953Z,49.75
2017-05-30T04:47:54.892Z,49.95
2017-05-30T04:48:54.830Z,49.65
2017-05-30T04:49:54.768Z,50.04
2017-05-30T04:50:54.706Z,50.04
2017-05-30T04:51:54.642Z,50.43
2017-05-30T04:52:54.580Z,50.33
2017-05-30T04:53:54.517Z,50.62
2017-05-30T04:54:54.458Z,50.71
2017-05-30T04:55:54.064Z,50.43
2017-05-30T04:56:54.006Z,50.71
2017-05-30T04:57:54.272Z,50.81
2017-05-30T04:58:53.879Z,50.71
2017-05-30T04:59:54.145Z,50.91
2017-05-30T05:00:53.754Z,50.71
2017-05-30T05:01:54.022Z,50.81
2017-05-30T05:02:53.957Z,51.1
2017-05-30T05:03:53.567Z,51.01
2017-05-30T05:04:53.831Z,51.01
2017-05-30T05:05:53.773Z,51.2
2017-05-30T05:06:53.708Z,51.29
2017-05-30T05:07:53.646Z,51.2
2017-05-30T05:08:53.584Z,51.1
2017-05-30T05:09:53.521Z,51.78
2017-05-30T05:10:53.457Z,51.78
2017-05-30T05:11:53.396Z,51.39
2017-05-30T05:12:53.332Z,51.68
2017-05-30T05:13:53.271Z,51.49
2017-05-30T05:14:53.209Z,51.68
2017-05-30T05:15:53.146Z,51.68
2017-05-30T05:16:53.084Z,51.78
2017-05-30T05:17:53.021Z,51.59
2017-05-30T05:18:53.389Z,51.68
2017-05-30T05:19:52.896Z,51.78
2017-05-30T05:20:52.837Z,51.97
2017-05-30T05:21:52.772Z,51.68
2017-05-30T05:22:52.709Z,52.07
2017-05-30T05:23:52.647Z,51.97
2017-05-30T05:24:52.586Z,52.07
2017-05-30T05:25:52.523Z,52.26
2017-05-30T05:26:52.459Z,52.17
2017-05-30T05:27:52.071Z,52.33
2017-05-30T05:28:52.336Z,51.87
2017-05-30T05:29:52.272Z,52.17
2017-05-30T05:30:52.210Z,52.07
2017-05-30T05:31:52.149Z,51.95
2017-05-30T05:32:52.084Z,51.75
2017-05-30T05:33:52.021Z,51.95
2017-05-30T05:34:51.961Z,51.87
2017-05-30T05:35:51.897Z,51.95
2017-05-30T05:36:51.846Z,52.26
2017-05-30T05:37:51.770Z,52.26
2017-05-30T05:38:51.711Z,52.07
2017-05-30T05:39:51.646Z,52.14
2017-05-30T05:40:51.583Z,51.95
2017-05-30T05:41:51.522Z,52.72
2017-05-30T05:42:51.459Z,52.72
2017-05-30T05:43:51.397Z,52.33
2017-05-30T05:44:51.334Z,52.81
2017-05-30T05:45:50.946Z,52.81
2017-05-30T05:46:51.208Z,52.81
2017-05-30T05:47:51.149Z,52.55
2017-05-30T05:48:51.083Z,52.55
2017-05-30T05:49:51.021Z,52.72
2017-05-30T05:50:50.959Z,52.75
2017-05-30T05:51:50.895Z,52.62
2017-05-30T05:52:50.834Z,52.72
2017-05-30T05:53:50.773Z,52.94
2017-05-30T05:54:50.711Z,53.23
2017-05-30T05:55:50.646Z,53.11
2017-05-30T05:56:50.582Z,53.2
2017-05-30T05:57:50.525Z,52.91
2017-05-30T05:58:50.459Z,53.11
2017-05-30T05:59:50.395Z,52.81
2017-05-30T06:00:50.336Z,53.2
2017-05-30T06:01:50.271Z,52.81
2017-05-30T06:02:49.882Z,53.03
2017-05-30T06:03:50.144Z,53.01
2017-05-30T06:04:50.082Z,53.11
2017-05-30T06:05:50.021Z,53.11
2017-05-30T06:06:49.959Z,53.2
2017-05-30T06:07:49.895Z,53.01
2017-05-30T06:08:49.834Z,53.2
2017-05-30T06:09:49.772Z,53.11
2017-05-30T06:10:49.711Z,52.91
2017-05-30T06:11:49.712Z,52.84
2017-05-30T06:12:49.582Z,52.72
2017-05-30T06:13:49.519Z,53.01
2017-05-30T06:14:49.458Z,52.91
2017-05-30T06:15:49.400Z,53.01
2017-05-30T06:16:49.332Z,53.2
2017-05-30T06:17:49.269Z,53.01
2017-05-30T06:18:49.206Z,53.39
2017-05-30T06:19:49.147Z,53.3
2017-05-30T06:20:49.384Z,52.91
2017-05-30T06:21:49.021Z,53.39
2017-05-30T06:22:48.961Z,53.88
2017-05-30T06:23:48.911Z,53.39
2017-05-30T06:24:48.832Z,53.3
2017-05-30T06:25:48.768Z,53.49
2017-05-30T06:26:48.707Z,53.59
2017-05-30T06:27:48.645Z,53.49
2017-05-30T06:28:48.583Z,53.49
2017-05-30T06:29:48.519Z,53.3
2017-05-30T06:30:48.456Z,53.39
2017-05-30T06:31:48.393Z,53.49
2017-05-30T06:32:48.332Z,53.39
2017-05-30T06:33:48.277Z,53.69
2017-05-30T06:34:48.212Z,53.88
2017-05-30T06:35:47.820Z,53.49
2017-05-30T06:36:47.755Z,53.97
2017-05-30T06:37:48.017Z,53.97
2017-05-30T06:38:47.955Z,54.07
2017-05-30T06:39:47.892Z,54.17
2017-05-30T06:40:47.838Z,53.97
2017-05-30T06:41:47.766Z,53.78
2017-05-30T06:42:47.707Z,54.07
2017-05-30T06:43:47.645Z,53.78
2017-05-30T06:44:47.582Z,54.36
2017-05-30T06:45:47.519Z,54.27
2017-05-30T06:46:47.454Z,53.97
2017-05-30T06:47:47.391Z,54.17
2017-05-30T06:48:47.340Z,54.07
2017-05-30T06:49:47.266Z,54.27
2017-05-30T06:50:47.203Z,54.46
2017-05-30T06:51:47.141Z,54.07
2017-05-30T06:52:47.079Z,54.27
2017-05-30T06:53:47.017Z,54.46
2017-05-30T06:54:46.961Z,54.65
2017-05-30T06:55:46.893Z,54.17
2017-05-30T06:56:46.826Z,54.36
2017-05-30T06:57:46.765Z,54.36
2017-05-30T06:58:46.376Z,54.17
2017-05-30T06:59:46.639Z,54.36
2017-05-30T07:00:46.578Z,54.46
2017-05-30T07:01:46.515Z,54.36
2017-05-30T07:02:46.453Z,54.65
2017-05-30T07:03:46.390Z,54.46
2017-05-30T07:04:46.333Z,54.46
2017-05-30T07:05:46.265Z,54.36
2017-05-30T07:06:46.201Z,54.75
2017-05-30T07:07:46.151Z,54.65
2017-05-30T07:08:46.075Z,54.75
2017-05-30T07:09:46.013Z,54.75
2017-05-30T07:10:45.955Z,54.65
2017-05-30T07:11:45.559Z,54.55
2017-05-30T07:12:45.824Z,54.65
2017-05-30T07:13:45.767Z,54.46
2017-05-30T07:14:45.702Z,54.55
2017-05-30T07:15:45.889Z,54.55
2017-05-30T07:16:45.573Z,54.94
2017-05-30T07:17:45.510Z,54.84
2017-05-30T07:18:45.449Z,54.94
2017-05-30T07:19:45.388Z,54.55
2017-05-30T07:20:45.330Z,54.65
2017-05-30T07:21:44.934Z,55.13
2017-05-30T07:22:45.197Z,54.84
2017-05-30T07:23:45.136Z,54.84
2017-05-30T07:24:45.074Z,54.65
2017-05-30T07:25:45.009Z,54.75
2017-05-30T07:26:44.949Z,54.55
2017-05-30T07:27:44.887Z,54.55
2017-05-30T07:28:44.832Z,54.75
2017-05-30T07:29:44.759Z,54.55
2017-05-30T07:30:44.698Z,54.84
2017-05-30T07:31:44.635Z,54.84
2017-05-30T07:32:44.575Z,54.65
2017-05-30T07:33:44.508Z,54.75
2017-05-30T07:34:44.119Z,54.75
2017-05-30T07:35:44.057Z,54.75
2017-05-30T07:36:43.994Z,54.94
2017-05-30T07:37:44.259Z,55.42
2017-05-30T07:38:44.196Z,55.42
2017-05-30T07:39:44.133Z,55.23
2017-05-30T07:40:44.068Z,55.23
2017-05-30T07:41:44.006Z,54.84
2017-05-30T07:42:43.944Z,55.33
2017-05-30T07:43:43.883Z,54.94
2017-05-30T07:44:43.821Z,55.9
2017-05-30T07:45:43.756Z,55.81
2017-05-30T07:46:43.696Z,55.9
2017-05-30T07:47:43.631Z,55.23
2017-05-30T07:48:43.568Z,55.52
2017-05-30T07:49:43.505Z,55.33
2017-05-30T07:50:43.451Z,55.62
2017-05-30T07:51:43.384Z,55.52
2017-05-30T07:52:43.318Z,55.42
2017-05-30T07:53:43.259Z,55.33
2017-05-30T07:54:43.194Z,55.71
2017-05-30T07:55:43.130Z,55.71
2017-05-30T07:56:43.065Z,55.71
2017-05-30T07:57:43.006Z,55.71
2017-05-30T07:58:42.942Z,55.33
2017-05-30T07:59:42.880Z,55.62
2017-05-30T08:00:42.821Z,54.65
2017-05-30T08:01:42.755Z,54.94
2017-05-30T08:02:42.646Z,54.55
2017-05-30T08:03:42.701Z,55.16
2017-05-30T08:04:42.637Z,55.71
2017-05-30T08:05:42.516Z,55.74
2017-05-30T08:06:42.442Z,56.32
2017-05-30T08:07:42.383Z,57.09
2017-05-30T08:08:42.317Z,57.19
2017-05-30T08:09:42.253Z,57.29
2017-05-30T08:10:42.191Z,57.87
2017-05-30T08:11:42.130Z,57.96
2017-05-30T08:12:42.067Z,58.45
2017-05-30T08:13:42.001Z,58.64
2017-05-30T08:14:41.943Z,58.73
2017-05-30T08:15:41.881Z,58.83
2017-05-30T08:16:41.815Z,59.15
2017-05-30T08:17:41.756Z,59.15
2017-05-30T08:18:41.702Z,59.53
2017-05-30T08:19:41.630Z,59.73
2017-05-30T08:20:41.566Z,59.83
2017-05-30T08:21:41.503Z,60.11
2017-05-30T08:22:41.441Z,59.83
2017-05-30T08:23:41.381Z,60.31
2017-05-30T08:24:41.322Z,60.21
2017-05-30T08:25:40.929Z,60.69
2017-05-30T08:26:40.867Z,60.69
2017-05-30T08:27:41.132Z,60.31
2017-05-30T08:28:41.072Z,60.21
2017-05-30T08:29:41.010Z,60.69
2017-05-30T08:30:40.946Z,60.69
2017-05-30T08:31:40.900Z,60.99
2017-05-30T08:32:40.495Z,61.08
2017-05-30T08:33:40.758Z,61.08
2017-05-30T08:34:40.697Z,60.99
2017-05-30T08:35:40.635Z,60.89
2017-05-30T08:36:40.582Z,61.37
2017-05-30T08:37:40.284Z,60.5
2017-05-30T08:38:40.452Z,61.18
2017-05-30T08:39:40.386Z,60.79
2017-05-30T08:40:40.326Z,61.08
2017-05-30T08:41:40.265Z,60.79
2017-05-30T08:42:40.200Z,60.92
2017-05-30T08:43:40.140Z,61.11
2017-05-30T08:44:40.077Z,61.18
2017-05-30T08:45:40.016Z,61.37
2017-05-30T08:46:39.953Z,61.6
2017-05-30T08:47:39.898Z,61.98
2017-05-30T08:48:39.834Z,61.89
2017-05-30T08:49:39.767Z,61.6
2017-05-30T08:50:39.709Z,62.37
2017-05-30T08:51:39.668Z,62.47
2017-05-30T08:52:39.585Z,62.47
2017-05-30T08:53:39.955Z,62.18
2017-05-30T08:54:39.459Z,62.66
2017-05-30T08:55:39.399Z,62.37
2017-05-30T08:56:39.336Z,62.56
2017-05-30T08:57:39.280Z,62.47
2017-05-30T08:58:38.885Z,62.66
2017-05-30T08:59:39.149Z,62.85
2017-05-30T09:00:39.091Z,63.24
2017-05-30T09:01:39.033Z,62.95
2017-05-30T09:02:38.968Z,63.14
2017-05-30T09:03:38.904Z,62.56
2017-05-30T09:04:38.851Z,62.85
2017-05-30T09:05:38.780Z,63.37
2017-05-30T09:06:38.719Z,63.46
2017-05-30T09:07:38.663Z,63.66
2017-05-30T09:08:38.599Z,63.56
2017-05-30T09:09:38.537Z,63.46
2017-05-30T09:10:38.472Z,63.56
2017-05-30T09:11:38.413Z,64.04
2017-05-30T09:12:38.349Z,63.95
2017-05-30T09:13:38.288Z,64.04
2017-05-30T09:14:38.225Z,63.95
2017-05-30T09:15:38.166Z,64.34
2017-05-30T09:16:38.102Z,64.04
2017-05-30T09:17:37.717Z,64.43
2017-05-30T09:18:37.981Z,64.43
2017-05-30T09:19:37.918Z,64.43
2017-05-30T09:20:37.861Z,65.01
2017-05-30T09:21:37.797Z,64.92
2017-05-30T09:22:37.411Z,64.92
2017-05-30T09:23:37.673Z,64.72
2017-05-30T09:24:37.611Z,64.82
2017-05-30T09:25:37.553Z,65.01
2017-05-30T09:26:37.491Z,65.01
2017-05-30T09:27:37.432Z,64.92
2017-05-30T09:28:37.367Z,64.92
2017-05-30T09:29:37.400Z,64.72
2017-05-30T09:30:37.246Z,64.43
2017-05-30T09:31:37.184Z,64.72
2017-05-30T09:32:37.122Z,65.01
2017-05-30T09:33:37.059Z,64.82
2017-05-30T09:34:37.000Z,64.72
2017-05-30T09:35:36.939Z,65.3
2017-05-30T09:36:37.018Z,65.3
2017-05-30T09:37:36.493Z,65.4
2017-05-30T09:38:36.754Z,65.3
2017-05-30T09:39:36.741Z,65.01
2017-05-30T09:40:36.632Z,65.11
2017-05-30T09:41:36.244Z,65.34
2017-05-30T09:42:36.510Z,65.01
2017-05-30T09:43:36.450Z,65.4
2017-05-30T09:44:36.060Z,65.3
2017-05-30T09:45:35.997Z,65.2
2017-05-30T09:46:35.938Z,65.11
2017-05-30T09:47:35.880Z,65.53
2017-05-30T09:48:36.141Z,65.5
2017-05-30T09:49:35.756Z,65.3
2017-05-30T09:50:36.020Z,65.24
2017-05-30T09:51:35.958Z,65.3
2017-05-30T09:52:35.896Z,65.53
2017-05-30T09:53:35.509Z,65.14
2017-05-30T09:54:35.776Z,65.34
2017-05-30T09:55:36.144Z,65.43
2017-05-30T09:56:35.653Z,65.72
2017-05-30T09:57:35.591Z,65.63
2017-05-30T09:58:35.530Z,65.63
2017-05-30T09:59:35.468Z,65.43
2017-05-30T10:00:35.085Z,65.63
2017-05-30T10:01:35.235Z,65.63
2017-05-30T10:02:35.293Z,65.72
2017-05-30T10:03:34.899Z,64.07
2017-05-30T10:04:34.836Z,63.21
2017-05-30T10:05:35.104Z,62.98
2017-05-30T10:06:35.042Z,61.63
2017-05-30T10:07:34.982Z,61.76
2017-05-30T10:08:34.922Z,60.85
2017-05-30T10:09:34.862Z,61.05
2017-05-30T10:10:34.470Z,60.95
2017-05-30T10:11:34.739Z,61.53
2017-05-30T10:12:34.348Z,61.43
2017-05-30T10:13:34.616Z,61.82
2017-05-30T10:14:34.554Z,61.53
2017-05-30T10:15:34.742Z,61.82
2017-05-30T10:16:34.432Z,61.53
2017-05-30T10:17:34.381Z,62.59
2017-05-30T10:18:34.309Z,62.01
2017-05-30T10:19:34.259Z,62.5
2017-05-30T10:20:34.341Z,62.79
2017-05-30T10:21:34.138Z,63.08
2017-05-30T10:22:34.063Z,62.69
2017-05-30T10:23:34.012Z,63.08
2017-05-30T10:24:33.942Z,63.08
2017-05-30T10:25:33.557Z,62.59
2017-05-30T10:26:33.822Z,62.59
2017-05-30T10:27:33.432Z,62.69
2017-05-30T10:28:33.371Z,62.3
2017-05-30T10:29:33.308Z,62.4
2017-05-30T10:30:33.637Z,62.4
2017-05-30T10:31:33.513Z,61.53
2017-05-30T10:32:33.452Z,61.69
2017-05-30T10:33:33.403Z,61.82
2017-05-30T10:34:33.330Z,61.63
2017-05-30T10:35:33.272Z,61.72
2017-05-30T10:36:33.206Z,61.79
2017-05-30T10:37:32.816Z,61.63
2017-05-30T10:38:33.085Z,61.92
2017-05-30T10:39:33.022Z,61.72
2017-05-30T10:40:32.961Z,61.89
2017-05-30T10:41:32.901Z,61.24
2017-05-30T10:42:32.841Z,61.82
2017-05-30T10:43:32.776Z,61.63
2017-05-30T10:44:32.718Z,61.15
2017-05-30T10:45:32.654Z,61.53
2017-05-30T10:46:32.592Z,61.11
2017-05-30T10:47:32.532Z,61.98
2017-05-30T10:48:32.473Z,61.69
2017-05-30T10:49:32.411Z,61.72
2017-05-30T10:50:32.021Z,61.72
2017-05-30T10:51:32.286Z,61.72
2017-05-30T10:52:32.227Z,61.6
2017-05-30T10:53:31.838Z,61.69
2017-05-30T10:54:32.116Z,61.63
2017-05-30T10:55:32.090Z,62.3
2017-05-30T10:56:31.979Z,62.5
2017-05-30T10:57:31.922Z,62.4
2017-05-30T10:58:31.857Z,62.5
2017-05-30T10:59:31.798Z,62.59
2017-05-30T11:00:31.885Z,61.72
2017-05-30T11:01:31.678Z,61.53
2017-05-30T11:02:31.612Z,60.95
2017-05-30T11:03:31.550Z,61.15
2017-05-30T11:04:31.491Z,60.57
2017-05-30T11:05:31.432Z,60.59
2017-05-30T11:06:31.373Z,60.5
2017-05-30T11:07:31.312Z,60.57
2017-05-30T11:08:31.251Z,60.57
2017-05-30T11:09:31.193Z,60.27
2017-05-30T11:10:31.125Z,61.46
2017-05-30T11:11:31.066Z,61.24
2017-05-30T11:12:31.004Z,61.24
2017-05-30T11:13:30.941Z,61.63
2017-05-30T11:14:30.883Z,61.63
2017-05-30T11:15:30.494Z,61.24
2017-05-30T11:16:30.962Z,61.33
2017-05-30T11:17:30.699Z,61.72
2017-05-30T11:18:30.328Z,61.76
2017-05-30T11:19:30.577Z,61.72
2017-05-30T11:20:30.519Z,61.63
2017-05-30T11:21:30.457Z,61.72
2017-05-30T11:22:30.396Z,61.46
2017-05-30T11:23:30.009Z,61.27
2017-05-30T11:24:29.946Z,60.88
2017-05-30T11:25:29.984Z,61.08
2017-05-30T11:26:30.154Z,61.18
2017-05-30T11:27:30.096Z,61.46
2017-05-30T11:28:30.032Z,61.18
2017-05-30T11:29:29.974Z,61.18
2017-05-30T11:30:29.909Z,60.82
2017-05-30T11:31:29.850Z,61.66
2017-05-30T11:32:29.789Z,61.59
2017-05-30T11:33:29.728Z,61.56
2017-05-30T11:34:29.668Z,62.46
2017-05-30T11:35:29.605Z,62.56
2017-05-30T11:36:29.545Z,62.27
2017-05-30T11:37:29.485Z,62.34
2017-05-30T11:38:29.425Z,62.46
2017-05-30T11:39:29.363Z,62.75
2017-05-30T11:40:28.978Z,62.63
2017-05-30T11:41:29.244Z,62.43
2017-05-30T11:42:29.182Z,62.82
2017-05-30T11:43:29.123Z,62.82
2017-05-30T11:44:29.079Z,62.72
2017-05-30T11:45:29.005Z,62.72
2017-05-30T11:46:28.940Z,62.72
2017-05-30T11:47:28.879Z,62.63
2017-05-30T11:48:28.818Z,62.43
2017-05-30T11:49:28.760Z,62.53
2017-05-30T11:50:28.699Z,62.34
2017-05-30T11:51:28.636Z,62.34
2017-05-30T11:52:28.576Z,62.53
2017-05-30T11:53:28.518Z,62.14
2017-05-30T11:54:28.459Z,61.85
2017-05-30T11:55:28.551Z,62.34
2017-05-30T11:56:28.007Z,62.53
2017-05-30T11:57:28.277Z,61.66
2017-05-30T11:58:28.214Z,62.34
2017-05-30T11:59:28.152Z,61.56
2017-05-30T12:00:28.242Z,61.85
2017-05-30T12:01:28.032Z,62.04
2017-05-30T12:02:27.974Z,62.63
2017-05-30T12:03:27.919Z,62.24
2017-05-30T12:04:27.851Z,62.63
2017-05-30T12:05:27.789Z,62.63
2017-05-30T12:06:27.726Z,62.53
2017-05-30T12:07:27.665Z,62.72
2017-05-30T12:08:27.605Z,62.82
2017-05-30T12:09:27.543Z,62.63
2017-05-30T12:10:27.485Z,62.53
2017-05-30T12:11:27.424Z,61.85
2017-05-30T12:12:27.039Z,61.66
2017-05-30T12:13:27.303Z,61.85
2017-05-30T12:14:26.912Z,62.14
2017-05-30T12:15:27.179Z,61.85
2017-05-30T12:16:27.122Z,61.85
2017-05-30T12:17:27.061Z,61.66
2017-05-30T12:18:26.998Z,61.95
2017-05-30T12:19:26.610Z,61.56
2017-05-30T12:20:26.876Z,61.66
2017-05-30T12:21:26.817Z,61.66
2017-05-30T12:22:26.758Z,61.18
2017-05-30T12:23:26.464Z,61.76
2017-05-30T12:24:26.306Z,61.76
2017-05-30T12:25:26.575Z,61.27
2017-05-30T12:26:26.510Z,61.27
2017-05-30T12:27:26.451Z,61.27
2017-05-30T12:28:26.394Z,61.46
2017-05-30T12:29:26.330Z,60.98
2017-05-30T12:30:26.317Z,61.08
2017-05-30T12:31:26.216Z,60.78
2017-05-30T12:32:26.150Z,61.08
2017-05-30T12:33:26.088Z,60.98
2017-05-30T12:34:26.028Z,60.98
2017-05-30T12:35:25.969Z,60.88
2017-05-30T12:36:25.905Z,61.36
2017-05-30T12:37:25.516Z,60.98
2017-05-30T12:38:25.456Z,60.75
2017-05-30T12:39:25.728Z,60.59
2017-05-30T12:40:25.670Z,61.08
2017-05-30T12:41:25.603Z,60.88
2017-05-30T12:42:25.543Z,61.36
2017-05-30T12:43:25.171Z,60.78
2017-05-30T12:44:25.420Z,60.78
2017-05-30T12:45:25.363Z,61.08
2017-05-30T12:46:25.305Z,61.05
2017-05-30T12:47:25.247Z,60.88
2017-05-30T12:48:25.182Z,60.5
2017-05-30T12:49:25.121Z,60.57
2017-05-30T12:50:24.731Z,60.57
2017-05-30T12:51:25.001Z,60.66
2017-05-30T12:52:24.668Z,60.57
2017-05-30T12:53:24.887Z,60.66
2017-05-30T12:54:24.485Z,60.75
2017-05-30T12:55:24.772Z,60.85